createdAt,value
2019-03-01T00:00:20.957Z,44.00
2019-03-01T00:02:29.295Z,44.40
2019-03-01T00:05:31.142Z,43.70
2019-03-01T00:08:32.015Z,43.60
2019-03-01T00:11:27.441Z,44.10
2019-03-01T00:14:18.624Z,44.60
2019-03-01T00:17:06.658Z,45.50
2019-03-01T00:19:43.382Z,45.40
2019-03-01T00:21:57.231Z,45.20
2019-03-01T00:24:52.403Z,43.80
2019-03-01T00:27:50.991Z,43.30
2019-03-01T00:30:45.548Z,43.30
2019-03-01T00:33:02.234Z,44.00
2019-03-01T00:35:33.810Z,44.20
2019-03-01T00:38:26.187Z,44.90
2019-03-01T00:41:01.466Z,45.20
2019-03-01T00:43:36.792Z,46.30
2019-03-01T00:45:42.412Z,47.50
2019-03-01T00:47:48.037Z,47.20
2019-03-01T00:49:53.684Z,45.80
2019-03-01T00:51:59.258Z,45.20
2019-03-01T00:54:11.547Z,46.50
2019-03-01T00:56:18.213Z,47.80
2019-03-01T00:58:24.010Z,48.70
2019-03-01T01:00:36.635Z,48.90
2019-03-01T01:02:42.199Z,49.50
2019-03-01T01:04:47.819Z,49.40
2019-03-01T01:06:53.471Z,49.80
2019-03-01T01:08:58.976Z,51.60
2019-03-01T01:11:07.491Z,51.40
2019-03-01T01:13:12.998Z,51.40
2019-03-01T01:15:18.563Z,51.70
2019-03-01T01:17:24.118Z,51.70
2019-03-01T01:19:36.641Z,50.70
2019-03-01T01:21:42.210Z,49.90
2019-03-01T01:23:48.260Z,48.90
2019-03-01T01:26:00.281Z,46.60
2019-03-01T01:28:05.970Z,46.50
2019-03-01T01:30:12.507Z,46.50
2019-03-01T01:32:20.326Z,46.50
2019-03-01T01:34:25.839Z,46.70
2019-03-01T01:36:31.374Z,46.20
2019-03-01T01:38:36.889Z,47.30
2019-03-01T01:40:42.475Z,48.10
2019-03-01T01:42:48.021Z,47.90
2019-03-01T01:44:53.622Z,48.50
2019-03-01T01:46:59.187Z,49.40
2019-03-01T01:49:04.675Z,50.90
2019-03-01T01:51:10.192Z,51.80
2019-03-01T01:53:15.697Z,51.30
2019-03-01T01:55:21.241Z,51.80
2019-03-01T01:57:26.794Z,52.10
2019-03-01T01:59:32.314Z,52.30
2019-03-01T02:01:37.814Z,52.50
2019-03-01T02:03:43.395Z,52.00
2019-03-01T02:05:49.084Z,52.70
2019-03-01T02:07:54.746Z,53.50
2019-03-01T02:10:00.364Z,53.60
2019-03-01T02:12:05.965Z,52.50
2019-03-01T02:14:11.509Z,52.30
2019-03-01T02:16:19.118Z,53.40
2019-03-01T02:18:24.556Z,52.90
2019-03-01T02:20:30.113Z,51.20
2019-03-01T02:22:35.704Z,51.50
2019-03-01T02:24:41.205Z,52.10
2019-03-01T02:26:48.270Z,54.20
2019-03-01T02:28:53.808Z,54.30
2019-03-01T02:31:00.732Z,54.60
2019-03-01T02:33:06.298Z,55.40
2019-03-01T02:35:13.818Z,56.10
2019-03-01T02:37:19.348Z,56.40
2019-03-01T02:39:24.904Z,56.40
2019-03-01T02:41:30.536Z,56.10
2019-03-01T02:43:36.178Z,53.50
2019-03-01T02:45:41.738Z,52.50
2019-03-01T02:47:49.397Z,52.80
2019-03-01T02:49:54.999Z,50.70
2019-03-01T02:52:00.530Z,50.80
2019-03-01T02:54:08.902Z,50.20
2019-03-01T02:56:15.721Z,50.20
2019-03-01T02:58:21.339Z,50.10
2019-03-01T03:00:29.943Z,50.60
2019-03-01T03:02:35.517Z,50.70
2019-03-01T03:04:41.079Z,50.70
2019-03-01T03:06:59.590Z,50.60
2019-03-01T03:09:07.564Z,50.50
2019-03-01T03:11:13.327Z,49.90
2019-03-01T03:13:19.023Z,50.10
2019-03-01T03:15:31.150Z,49.80
2019-03-01T03:17:43.158Z,50.00
2019-03-01T03:19:49.444Z,50.10
2019-03-01T03:21:55.098Z,49.70
2019-03-01T03:24:00.563Z,49.80
2019-03-01T03:26:09.156Z,49.70
2019-03-01T03:28:14.782Z,49.60
2019-03-01T03:30:21.575Z,49.70
2019-03-01T03:32:27.094Z,49.80
2019-03-01T03:34:32.733Z,49.80
2019-03-01T03:36:38.325Z,49.50
2019-03-01T03:38:51.902Z,49.20
2019-03-01T03:40:57.420Z,48.80
2019-03-01T03:43:05.967Z,48.60
2019-03-01T03:45:13.001Z,47.20
2019-03-01T03:47:27.535Z,46.70
2019-03-01T03:49:42.236Z,46.70
2019-03-01T03:51:47.847Z,46.60
2019-03-01T03:53:53.452Z,45.70
2019-03-01T03:55:59.003Z,45.70
2019-03-01T03:58:04.632Z,45.70
2019-03-01T04:00:14.073Z,45.30
2019-03-01T04:02:22.594Z,45.50
2019-03-01T04:04:28.319Z,46.00
2019-03-01T04:06:33.898Z,46.00
2019-03-01T04:08:39.610Z,45.90
2019-03-01T04:10:45.210Z,45.80
2019-03-01T04:13:04.037Z,46.10
2019-03-01T04:15:10.388Z,46.10
2019-03-01T04:17:18.538Z,46.70
2019-03-01T04:19:24.031Z,47.30
2019-03-01T04:21:29.583Z,47.70
2019-03-01T04:23:35.183Z,48.00
2019-03-01T04:25:47.206Z,48.90
2019-03-01T04:27:53.536Z,50.80
2019-03-01T04:29:59.648Z,51.20
2019-03-01T04:32:11.320Z,51.10
2019-03-01T04:34:23.286Z,50.60
2019-03-01T04:36:28.797Z,51.70
2019-03-01T04:38:34.252Z,51.40
2019-03-01T04:40:39.887Z,52.90
2019-03-01T04:42:51.825Z,53.90
2019-03-01T04:44:57.394Z,54.30
2019-03-01T04:47:03.017Z,55.20
2019-03-01T04:49:08.573Z,55.80
2019-03-01T04:51:14.215Z,56.10
2019-03-01T04:53:22.774Z,57.10
2019-03-01T04:55:28.445Z,58.10
2019-03-01T04:57:34.097Z,58.20
2019-03-01T04:59:39.550Z,58.40
2019-03-01T05:01:47.535Z,60.30
2019-03-01T05:03:53.049Z,62.10
2019-03-01T05:06:05.466Z,63.30
2019-03-01T05:08:11.102Z,64.60
2019-03-01T05:10:17.351Z,64.60
2019-03-01T05:12:22.950Z,67.40
2019-03-01T05:14:28.535Z,69.40
2019-03-01T05:16:34.049Z,71.20
2019-03-01T05:18:39.552Z,78.60
2019-03-01T05:20:45.100Z,79.90
2019-03-01T05:22:53.169Z,84.30
2019-03-01T05:24:58.768Z,88.30
2019-03-01T05:27:04.494Z,86.60
2019-03-01T05:29:10.081Z,90.60
2019-03-01T05:31:22.081Z,95.60
2019-03-01T05:33:27.910Z,99.90
2019-03-01T05:35:39.807Z,99.90
2019-03-01T05:37:45.452Z,99.90
2019-03-01T05:39:51.568Z,99.90
2019-03-01T05:41:58.785Z,99.90
2019-03-01T05:44:05.610Z,99.90
2019-03-01T05:46:11.165Z,99.90
2019-03-01T05:48:18.167Z,99.90
2019-03-01T05:50:23.837Z,99.90
2019-03-01T05:52:32.562Z,99.90
2019-03-01T05:54:38.143Z,99.90
2019-03-01T05:56:43.811Z,99.90
2019-03-01T05:59:00.237Z,99.90
2019-03-01T06:01:19.716Z,99.90
2019-03-01T06:03:44.426Z,99.90
2019-03-01T06:05:49.947Z,99.90
2019-03-01T06:08:25.285Z,99.90
2019-03-01T06:17:38.942Z,99.90
2019-03-01T06:20:34.604Z,99.90
2019-03-01T06:23:05.390Z,99.90
2019-03-01T06:26:01.710Z,99.90
2019-03-01T06:28:48.808Z,99.90
2019-03-01T06:31:51.432Z,99.90
2019-03-01T06:34:44.554Z,99.90
2019-03-01T06:37:13.563Z,99.90
2019-03-01T06:40:20.316Z,99.90
2019-03-01T06:43:05.797Z,99.90
2019-03-01T06:45:39.484Z,99.90
2019-03-01T06:47:48.182Z,99.90
2019-03-01T06:50:13.251Z,99.90
2019-03-01T06:52:20.824Z,99.90
2019-03-01T06:54:26.456Z,99.90
2019-03-01T06:56:32.029Z,99.90
2019-03-01T06:58:56.186Z,99.90
2019-03-01T07:01:14.079Z,99.90
2019-03-01T07:03:19.685Z,99.90
2019-03-01T07:05:25.314Z,99.90
2019-03-01T07:07:31.121Z,99.90
2019-03-01T07:09:36.726Z,99.90
2019-03-01T07:11:44.190Z,99.90
2019-03-01T07:13:49.438Z,99.90
2019-03-01T07:15:55.060Z,99.90
2019-03-01T07:18:00.591Z,99.90
2019-03-01T07:20:08.553Z,98.70
2019-03-01T07:22:13.582Z,74.10
2019-03-01T07:24:19.360Z,59.50
2019-03-01T07:26:31.765Z,59.60
2019-03-01T07:28:39.236Z,64.40
2019-03-01T07:30:45.621Z,70.50
2019-03-01T07:32:57.630Z,74.00
2019-03-01T07:35:03.206Z,75.80
2019-03-01T07:37:09.153Z,79.20
2019-03-01T07:39:14.745Z,77.00
2019-03-01T07:41:20.322Z,78.40
2019-03-01T07:43:25.949Z,74.00
2019-03-01T07:45:31.541Z,71.80
2019-03-01T07:47:37.137Z,70.80
2019-03-01T07:49:42.788Z,73.40
2019-03-01T07:51:49.680Z,78.20
2019-03-01T07:53:55.848Z,72.00
2019-03-01T07:56:04.126Z,71.00
2019-03-01T07:58:08.987Z,64.10
2019-03-01T08:00:21.218Z,59.50
2019-03-01T08:02:27.969Z,57.60
2019-03-01T08:04:33.574Z,59.90
2019-03-01T08:06:39.036Z,59.60
2019-03-01T08:08:44.505Z,59.10
2019-03-01T08:11:00.031Z,57.50
2019-03-01T08:13:17.552Z,57.70
2019-03-01T08:15:23.286Z,45.90
2019-03-01T08:17:32.685Z,39.20
2019-03-01T08:19:38.013Z,38.60
2019-03-01T08:21:46.059Z,38.00
2019-03-01T08:23:50.759Z,39.60
2019-03-01T08:25:59.904Z,38.80
2019-03-01T08:28:08.541Z,38.00
2019-03-01T08:30:15.599Z,39.00
2019-03-01T08:32:21.018Z,39.20
2019-03-01T08:34:26.343Z,38.10
2019-03-01T08:36:31.590Z,37.20
2019-03-01T08:38:37.278Z,35.00
2019-03-01T08:40:46.667Z,34.50
2019-03-01T08:42:52.923Z,32.90
2019-03-01T08:44:59.333Z,31.70
2019-03-01T08:47:04.932Z,31.70
2019-03-01T08:49:10.536Z,31.50
2019-03-01T08:51:17.529Z,30.60
2019-03-01T08:53:22.939Z,30.50
2019-03-01T08:55:29.527Z,32.40
2019-03-01T08:57:43.782Z,33.50
2019-03-01T08:59:41.814Z,32.90
2019-03-01T09:01:47.140Z,33.30
2019-03-01T09:04:18.075Z,33.40
2019-03-01T09:06:23.165Z,32.80
2019-03-01T09:08:28.600Z,32.00
2019-03-01T09:10:34.381Z,31.90
2019-03-01T09:12:43.319Z,34.50
2019-03-01T09:14:48.548Z,33.00
2019-03-01T09:16:53.833Z,34.70
2019-03-01T09:18:59.154Z,33.80
2019-03-01T09:21:06.110Z,34.90
2019-03-01T09:23:25.269Z,32.80
2019-03-01T09:25:27.420Z,36.80
2019-03-01T09:27:32.647Z,33.10
2019-03-01T09:29:41.546Z,33.70
2019-03-01T09:31:44.811Z,33.70
2019-03-01T09:33:50.046Z,31.00
2019-03-01T09:36:07.887Z,32.50
2019-03-01T09:38:13.471Z,33.20
2019-03-01T09:40:18.738Z,33.40
2019-03-01T09:42:31.294Z,32.80
2019-03-01T09:44:38.382Z,33.80
2019-03-01T09:46:49.703Z,34.00
2019-03-01T09:49:04.391Z,35.50
2019-03-01T09:51:13.211Z,36.30
2019-03-01T09:53:25.482Z,36.50
2019-03-01T09:55:38.543Z,36.70
2019-03-01T09:57:43.922Z,35.00
2019-03-01T09:59:49.196Z,37.50
2019-03-01T10:01:54.395Z,34.10
2019-03-01T10:04:00.492Z,33.10
2019-03-01T10:06:05.791Z,33.70
2019-03-01T10:08:11.158Z,32.40
2019-03-01T10:10:23.072Z,33.00
2019-03-01T10:12:28.446Z,33.10
2019-03-01T10:14:33.873Z,32.80
2019-03-01T10:16:39.130Z,30.90
2019-03-01T10:18:44.411Z,30.70
2019-03-01T10:20:49.727Z,30.60
2019-03-01T10:22:55.022Z,32.00
2019-03-01T10:25:00.284Z,33.00
2019-03-01T10:27:06.838Z,33.70
2019-03-01T10:29:12.301Z,34.10
2019-03-01T10:31:20.631Z,34.50
2019-03-01T10:33:26.732Z,34.10
2019-03-01T10:35:32.323Z,33.70
2019-03-01T10:37:37.567Z,34.40
2019-03-01T10:39:42.947Z,34.80
2019-03-01T10:41:50.835Z,37.00
2019-03-01T10:43:56.193Z,38.00
2019-03-01T10:46:09.210Z,37.60
2019-03-01T10:48:14.526Z,35.80
2019-03-01T10:50:19.920Z,36.40
2019-03-01T10:52:25.458Z,36.80
2019-03-01T10:54:31.112Z,35.70
2019-03-01T10:56:36.602Z,35.50
2019-03-01T10:58:42.176Z,35.90
2019-03-01T11:00:50.997Z,37.40
2019-03-01T11:02:56.748Z,36.30
2019-03-01T11:05:02.295Z,35.70
2019-03-01T11:07:07.812Z,37.40
2019-03-01T11:09:32.570Z,37.90
2019-03-01T11:11:38.073Z,35.60
2019-03-01T11:13:43.620Z,36.40
2019-03-01T11:15:49.175Z,34.00
2019-03-01T11:17:54.687Z,34.60
2019-03-01T11:20:00.313Z,34.80
2019-03-01T11:22:12.876Z,34.60
2019-03-01T11:24:20.211Z,36.00
2019-03-01T11:26:25.783Z,36.10
2019-03-01T11:28:37.923Z,36.50
2019-03-01T11:30:43.623Z,37.20
2019-03-01T11:32:55.686Z,37.30
2019-03-01T11:35:02.102Z,37.90
2019-03-01T11:37:08.093Z,38.00
2019-03-01T11:39:14.031Z,38.40
2019-03-01T11:41:19.530Z,38.40
2019-03-01T11:43:25.074Z,38.50
2019-03-01T11:45:30.876Z,38.20
2019-03-01T11:47:36.467Z,39.10
2019-03-01T11:49:42.019Z,38.80
2019-03-01T11:51:47.602Z,38.40
2019-03-01T11:53:53.065Z,38.90
2019-03-01T11:55:58.660Z,38.30
2019-03-01T11:58:11.180Z,39.00
2019-03-01T12:00:20.498Z,38.60
2019-03-01T12:02:26.208Z,38.30
2019-03-01T12:04:31.778Z,38.40
2019-03-01T12:06:37.367Z,38.00
2019-03-01T12:08:42.826Z,38.30
2019-03-01T12:10:48.414Z,37.70
2019-03-01T12:12:58.043Z,39.80
2019-03-01T12:15:03.591Z,37.80
2019-03-01T12:17:09.175Z,38.50
2019-03-01T12:19:14.818Z,39.10
2019-03-01T12:21:20.396Z,38.50
2019-03-01T12:23:26.003Z,40.10
2019-03-01T12:25:31.581Z,39.60
2019-03-01T12:27:39.235Z,38.70
2019-03-01T12:29:53.209Z,38.40
2019-03-01T12:31:58.797Z,40.00
2019-03-01T12:34:04.321Z,37.70
2019-03-01T12:36:09.834Z,37.40
2019-03-01T12:38:15.421Z,38.50
2019-03-01T12:40:23.172Z,38.10
2019-03-01T12:42:36.604Z,38.10
2019-03-01T12:44:42.434Z,39.20
2019-03-01T12:46:50.307Z,39.60
2019-03-01T12:48:55.902Z,39.30
2019-03-01T12:51:01.390Z,39.40
2019-03-01T12:53:06.907Z,39.70
2019-03-01T12:55:16.915Z,39.40
2019-03-01T12:57:22.498Z,41.50
2019-03-01T12:59:28.050Z,41.90
2019-03-01T13:01:33.548Z,40.90
2019-03-01T13:03:40.672Z,40.40
2019-03-01T13:05:46.307Z,39.70
2019-03-01T13:07:51.864Z,40.20
2019-03-01T13:09:58.872Z,42.30
2019-03-01T13:12:13.610Z,40.60
2019-03-01T13:14:20.274Z,41.50
2019-03-01T13:16:26.623Z,41.60
2019-03-01T13:18:33.001Z,40.90
2019-03-01T13:20:38.444Z,41.30
2019-03-01T13:22:50.393Z,41.00
2019-03-01T13:25:02.144Z,41.70
2019-03-01T13:27:08.050Z,42.80
2019-03-01T13:29:13.570Z,41.50
2019-03-01T13:31:18.961Z,41.40
2019-03-01T13:33:24.479Z,41.80
2019-03-01T13:35:29.905Z,40.20
2019-03-01T13:37:35.322Z,40.10
2019-03-01T13:39:40.783Z,40.80
2019-03-01T13:41:48.106Z,40.90
2019-03-01T13:43:54.442Z,39.30
2019-03-01T13:46:00.311Z,41.40
2019-03-01T13:48:05.752Z,38.10
2019-03-01T13:50:22.412Z,39.80
2019-03-01T13:52:36.446Z,38.30
2019-03-01T13:54:49.373Z,36.90
2019-03-01T13:56:58.550Z,37.80
2019-03-01T13:59:11.025Z,38.10
2019-03-01T14:01:16.413Z,38.00
2019-03-01T14:03:23.883Z,39.00
2019-03-01T17:30:53.410Z,51.00
2019-03-01T17:32:59.292Z,51.70
2019-03-01T17:35:06.054Z,52.30
2019-03-01T17:37:11.614Z,52.70
2019-03-01T17:39:20.086Z,53.50
2019-03-01T17:41:24.254Z,52.60
2019-03-01T17:43:32.786Z,53.10
2019-03-01T17:45:40.090Z,52.90
2019-03-01T17:47:46.287Z,52.60
2019-03-01T17:49:51.952Z,53.10
2019-03-01T17:51:57.728Z,53.90
2019-03-01T17:54:03.295Z,54.30
2019-03-01T17:56:08.770Z,54.80
2019-03-01T17:58:14.297Z,55.40
2019-03-01T18:00:25.474Z,56.30
2019-03-01T18:02:31.940Z,56.80
2019-03-01T18:04:39.442Z,57.60
2019-03-01T18:06:45.100Z,58.80
2019-03-01T18:08:52.136Z,60.50
2019-03-01T18:11:00.217Z,62.80
2019-03-01T18:13:05.771Z,66.30
2019-03-01T18:15:12.502Z,69.30
2019-03-01T18:17:18.729Z,72.90
2019-03-01T18:19:26.767Z,79.40
2019-03-01T18:21:31.381Z,80.10
2019-03-01T18:23:49.418Z,79.30
2019-03-01T18:26:06.074Z,83.00
2019-03-01T18:28:11.892Z,90.70
2019-03-01T18:30:19.859Z,93.40
2019-03-01T18:32:28.500Z,99.30
2019-03-01T18:34:36.385Z,99.90
2019-03-01T18:36:46.637Z,99.90
2019-03-01T18:38:52.164Z,99.90
2019-03-01T18:40:57.702Z,99.90
2019-03-01T18:43:03.258Z,99.90
2019-03-01T18:45:11.710Z,99.90
2019-03-01T18:47:17.450Z,99.90
2019-03-01T18:49:23.115Z,99.90
2019-03-01T18:51:31.994Z,99.90
2019-03-01T18:53:37.522Z,99.90
2019-03-01T18:55:43.066Z,99.90
2019-03-01T18:57:49.915Z,99.90
2019-03-01T18:59:56.428Z,99.90
2019-03-01T19:02:04.807Z,99.90
2019-03-01T19:04:12.980Z,99.90
2019-03-01T19:06:17.739Z,99.90
2019-03-01T19:08:25.091Z,99.90
2019-03-01T19:10:30.648Z,99.90
2019-03-01T19:12:36.176Z,99.90
2019-03-01T19:14:42.713Z,99.90
2019-03-01T19:16:48.238Z,99.90
2019-03-01T19:18:54.929Z,99.90
2019-03-01T19:21:00.435Z,99.90
2019-03-01T19:23:05.915Z,99.90
2019-03-01T19:25:21.644Z,99.90
2019-03-01T19:27:30.444Z,99.90
2019-03-01T19:29:38.158Z,99.90
2019-03-01T19:31:43.148Z,99.90
2019-03-01T19:33:48.700Z,99.90
2019-03-01T19:35:55.308Z,99.90
2019-03-01T19:38:00.822Z,99.90
2019-03-01T19:40:07.914Z,99.90
2019-03-01T19:42:14.780Z,99.90
2019-03-01T19:44:29.004Z,99.90
2019-03-01T19:46:38.072Z,99.90
2019-03-01T19:48:48.106Z,99.90
2019-03-01T19:50:54.110Z,99.90
2019-03-01T19:53:01.443Z,99.90
2019-03-01T19:55:11.686Z,99.90
2019-03-01T19:57:16.222Z,99.90
2019-03-01T19:59:21.994Z,99.90
2019-03-01T20:01:33.432Z,99.90
2019-03-01T20:03:39.128Z,99.90
2019-03-01T20:05:44.894Z,99.90
2019-03-01T20:07:51.766Z,99.90
2019-03-01T20:10:01.001Z,99.90
2019-03-01T20:12:08.424Z,99.90
2019-03-01T20:14:16.866Z,99.90
2019-03-01T20:16:23.462Z,99.90
2019-03-01T20:18:31.446Z,99.90
2019-03-01T20:20:36.897Z,99.90
2019-03-01T20:22:42.612Z,99.90
2019-03-01T20:24:56.079Z,99.90
2019-03-01T20:27:07.760Z,99.90
2019-03-01T20:29:13.623Z,99.90
2019-03-01T20:31:19.244Z,99.90
2019-03-01T20:33:26.981Z,99.90
2019-03-01T20:35:33.067Z,99.90
2019-03-01T20:37:40.051Z,99.90
2019-03-01T20:39:47.498Z,99.90
2019-03-01T20:41:55.027Z,99.90
2019-03-01T20:44:01.112Z,99.90
2019-03-01T20:46:10.746Z,99.90
2019-03-01T20:48:16.219Z,99.90
2019-03-01T20:50:21.989Z,99.90
2019-03-01T20:52:27.509Z,99.90
2019-03-01T20:54:33.150Z,99.90
2019-03-01T20:56:40.797Z,99.90
2019-03-01T20:58:46.417Z,99.90
2019-03-01T21:00:53.795Z,99.90
2019-03-01T21:03:06.169Z,99.90
2019-03-01T21:05:14.591Z,99.90
2019-03-01T21:07:20.707Z,99.90
2019-03-01T21:09:27.228Z,99.90
2019-03-01T21:11:33.520Z,99.90
2019-03-01T21:13:45.743Z,99.90
2019-03-01T21:15:49.866Z,99.90
2019-03-01T21:17:58.742Z,99.90
2019-03-01T21:20:09.092Z,99.90
2019-03-01T21:22:17.157Z,99.90
2019-03-01T21:24:32.042Z,99.90
2019-03-01T21:26:38.000Z,99.90
2019-03-01T21:28:46.392Z,99.90
2019-03-01T21:30:59.940Z,99.90
2019-03-01T21:33:05.768Z,99.90
2019-03-01T21:35:13.889Z,99.90
2019-03-01T21:37:18.900Z,99.90
2019-03-01T21:39:25.026Z,99.90
2019-03-01T21:41:41.490Z,99.90
2019-03-01T21:43:49.138Z,99.90
2019-03-01T21:45:59.846Z,99.90
2019-03-01T21:48:07.021Z,99.90
2019-03-01T21:50:16.441Z,99.90
2019-03-01T21:52:29.607Z,99.90
2019-03-01T21:54:37.960Z,99.90
2019-03-01T21:56:55.533Z,99.90
2019-03-01T21:58:51.316Z,99.90
2019-03-01T22:00:57.053Z,99.90
2019-03-01T22:03:41.938Z,99.90
2019-03-01T22:05:55.182Z,99.90
2019-03-01T22:08:01.603Z,99.90
2019-03-01T22:10:17.676Z,99.90
2019-03-01T22:12:28.054Z,99.90
2019-03-01T22:14:38.602Z,99.90
2019-03-01T22:16:59.478Z,99.90
2019-03-01T22:19:07.217Z,99.90
2019-03-01T22:21:16.938Z,99.90
2019-03-01T22:23:23.656Z,99.90
2019-03-01T22:42:14.338Z,99.90
2019-03-01T22:44:24.172Z,99.90
2019-03-01T22:46:33.240Z,99.90
2019-03-01T22:48:47.074Z,99.90
2019-03-01T22:54:34.439Z,99.90
2019-03-01T22:56:44.697Z,99.90
2019-03-01T22:58:48.770Z,99.90
2019-03-01T23:01:22.901Z,99.90
2019-03-01T23:03:40.144Z,99.90
2019-03-01T23:05:47.842Z,99.90
2019-03-01T23:07:53.413Z,99.90
2019-03-01T23:10:00.247Z,99.90
2019-03-01T23:12:11.637Z,99.90
2019-03-01T23:14:17.106Z,99.90
2019-03-01T23:16:22.790Z,99.90
2019-03-01T23:18:28.598Z,99.90
2019-03-01T23:20:34.252Z,99.90
2019-03-01T23:22:42.705Z,99.90
2019-03-01T23:24:46.989Z,99.90
2019-03-01T23:26:58.854Z,99.90
2019-03-01T23:29:04.611Z,99.90
2019-03-01T23:31:10.566Z,99.90
2019-03-01T23:33:22.409Z,99.90
2019-03-01T23:35:28.207Z,99.90
2019-03-01T23:37:35.622Z,99.90
2019-03-01T23:39:48.060Z,99.90
2019-03-01T23:41:55.444Z,99.90
2019-03-01T23:44:02.800Z,99.90
2019-03-01T23:46:09.006Z,99.90
2019-03-01T23:48:16.855Z,99.90
2019-03-01T23:50:26.316Z,99.90
2019-03-01T23:52:36.103Z,99.90
2019-03-01T23:54:44.309Z,99.90
2019-03-01T23:56:49.217Z,99.90
2019-03-01T23:58:54.781Z,99.90
